Time;durP1;ratioP1;P1;durP2;ratioP2;P2;SDS_P1;SDS_P2;PMS_P1;PMS_P2;Temp;Humidity;BMP_temperature;BMP_pressure;BME280_temperature;BME280_humidity;BME280_pressure;Samples;Min_cycle;Max_cycle;Signal;HPM_P1;HPM_P2
2021/09/19 00:00:00;;;;;;;8.60;5.12;;;;;;;15.29;78.33;99320.66;1773123;80;20980;-69
2021/09/19 00:02:26;;;;;;;11.40;5.85;;;;;;;15.27;78.11;99321.84;1774892;80;20976;-69
2021/09/19 00:04:53;;;;;;;7.78;5.12;;;;;;;15.20;78.07;99319.05;1767598;80;21482;-69
2021/09/19 00:07:20;;;;;;;7.47;5.47;;;;;;;15.15;78.05;99330.71;1746172;80;20933;-69
2021/09/19 00:09:48;;;;;;;9.13;6.25;;;;;;;15.09;78.08;99324.79;1744477;82;21048;-69
2021/09/19 00:12:15;;;;;;;8.60;6.00;;;;;;;15.04;78.06;99329.29;1744562;80;21389;-69
2021/09/19 00:14:43;;;;;;;9.73;5.65;;;;;;;14.99;78.13;99327.67;1744385;82;21020;-69
2021/09/19 00:17:10;;;;;;;12.65;5.75;;;;;;;14.95;78.15;99329.52;1762709;80;21441;-69
2021/09/19 00:19:37;;;;;;;9.33;5.72;;;;;;;14.92;78.22;99325.89;1775143;80;20995;-69
2021/09/19 00:22:04;;;;;;;7.42;5.67;;;;;;;14.88;78.23;99323.59;1772701;80;22222;-69
2021/09/19 00:24:31;;;;;;;8.93;5.70;;;;;;;14.85;78.23;99327.08;1775044;80;20976;-69
2021/09/19 00:27:00;;;;;;;11.00;5.67;;;;;;;14.82;78.25;99324.27;1763004;80;21004;-69
2021/09/19 00:29:26;;;;;;;10.05;5.60;;;;;;;14.80;78.42;99328.12;1755307;80;21028;-69
2021/09/19 00:31:52;;;;;;;9.73;5.45;;;;;;;14.79;78.47;99325.96;1753011;80;21045;-69
2021/09/19 00:34:19;;;;;;;6.85;5.20;;;;;;;14.79;78.55;99327.30;1746419;80;22172;-69
2021/09/19 00:36:46;;;;;;;8.68;4.75;;;;;;;14.75;78.56;99326.47;1744695;80;21079;-69
2021/09/19 00:39:12;;;;;;;5.75;4.50;;;;;;;14.71;78.61;99332.64;1767929;80;20933;-69
2021/09/19 00:41:40;;;;;;;6.70;4.28;;;;;;;14.70;78.73;99328.33;1770030;80;21225;-69
2021/09/19 00:44:08;;;;;;;5.67;4.15;;;;;;;14.69;78.81;99325.34;1747312;80;20988;-70
2021/09/19 00:46:35;;;;;;;6.72;4.62;;;;;;;14.71;78.89;99319.86;1751175;80;21843;-70
2021/09/19 00:49:02;;;;;;;5.42;4.40;;;;;;;14.72;78.87;99326.83;1764321;80;20913;-69
2021/09/19 00:51:31;;;;;;;6.20;4.53;;;;;;;14.69;78.64;99330.67;1771467;80;20984;-69
2021/09/19 00:53:57;;;;;;;8.05;4.62;;;;;;;14.63;78.56;99324.70;1726338;82;21033;-70
2021/09/19 00:56:27;;;;;;;8.23;4.20;;;;;;;14.62;78.51;99324.88;1765970;80;20929;-69
2021/09/19 00:58:57;;;;;;;4.80;4.28;;;;;;;14.58;78.42;99320.42;1766664;80;23173;-69
2021/09/19 01:01:25;;;;;;;5.35;4.40;;;;;;;14.52;78.41;99316.62;1744470;80;20949;-68
2021/09/19 01:03:52;;;;;;;8.10;4.47;;;;;;;14.48;78.43;99316.65;1744374;82;20941;-68
2021/09/19 01:06:21;;;;;;;7.55;4.60;;;;;;;14.44;78.35;99311.80;1751788;80;21490;-69
2021/09/19 01:08:48;;;;;;;10.38;4.60;;;;;;;14.40;78.28;99316.64;1751616;80;21605;-69
2021/09/19 01:11:16;;;;;;;6.75;4.33;;;;;;;14.33;78.30;99317.00;1764242;80;22644;-68
2021/09/19 01:13:45;;;;;;;6.53;4.47;;;;;;;14.26;78.45;99320.00;1772775;80;20945;-69
2021/09/19 01:16:13;;;;;;;8.05;4.35;;;;;;;14.24;78.72;99318.84;1745678;80;21363;-69
2021/09/19 01:18:42;;;;;;;7.62;4.72;;;;;;;14.28;78.92;99323.30;1760798;80;20980;-69
2021/09/19 01:21:11;;;;;;;7.92;4.35;;;;;;;14.30;79.07;99317.34;1772555;80;21392;-69
2021/09/19 01:23:40;;;;;;;7.00;4.70;;;;;;;14.35;79.22;99322.13;1772773;80;21914;-69
2021/09/19 01:26:07;;;;;;;7.42;4.60;;;;;;;14.38;79.27;99321.78;1765918;80;20980;-69
2021/09/19 01:28:34;;;;;;;9.55;5.17;;;;;;;14.39;79.42;99324.29;1744721;80;20936;-68
2021/09/19 01:31:02;;;;;;;12.05;5.55;;;;;;;14.39;79.53;99324.29;1753232;80;21428;-68
2021/09/19 01:33:30;;;;;;;11.43;7.58;;;;;;;14.40;79.70;99327.27;1690949;82;20976;-68
2021/09/19 01:35:58;;;;;;;10.28;7.33;;;;;;;14.39;79.96;99322.96;1759225;80;22190;-70
2021/09/19 01:38:26;;;;;;;18.12;7.28;;;;;;;14.41;80.17;99318.80;1774235;80;20984;-68
2021/09/19 01:40:54;;;;;;;22.80;8.05;;;;;;;14.43;80.31;99324.27;1773083;80;20925;-68
2021/09/19 01:43:22;;;;;;;18.32;8.30;;;;;;;14.42;80.50;99320.45;1769088;80;21634;-68
2021/09/19 01:45:50;;;;;;;21.90;8.13;;;;;;;14.41;80.65;99330.25;1737117;82;21004;-68
2021/09/19 01:48:16;;;;;;;30.75;8.20;;;;;;;14.40;80.87;99331.76;1760328;80;22176;-68
2021/09/19 01:50:43;;;;;;;45.17;8.85;;;;;;;14.35;81.04;99333.58;1775026;80;20940;-68
2021/09/19 01:53:09;;;;;;;48.87;9.28;;;;;;;14.35;81.19;99334.09;1773157;80;20968;-68
2021/09/19 01:55:37;;;;;;;113.95;9.70;;;;;;;14.30;81.39;99334.11;1768171;80;21016;-68
2021/09/19 01:58:04;;;;;;;109.17;9.93;;;;;;;14.27;81.61;99339.74;1756127;80;20936;-69
2021/09/19 02:00:30;;;;;;;122.98;10.10;;;;;;;14.25;81.83;99342.25;1774437;80;22791;-68
2021/09/19 02:02:57;;;;;;;91.02;10.13;;;;;;;14.23;81.96;99341.09;1735190;82;21064;-68
2021/09/19 02:05:24;;;;;;;51.40;10.85;;;;;;;14.26;82.11;99345.23;1775035;80;21428;-68
2021/09/19 02:07:51;;;;;;;26.82;10.00;;;;;;;14.27;82.33;99357.01;1696937;80;20950;-69
2021/09/19 02:10:18;;;;;;;27.32;10.15;;;;;;;14.28;82.50;99354.71;1766598;80;21000;-68
2021/09/19 02:12:45;;;;;;;16.52;9.40;;;;;;;14.29;82.68;99360.34;1729424;82;22218;-69
2021/09/19 02:15:12;;;;;;;15.63;10.78;;;;;;;14.30;82.91;99358.52;1772742;80;21420;-69
2021/09/19 02:17:38;;;;;;;11.78;8.28;;;;;;;14.28;83.06;99356.04;1735095;82;21424;-69
2021/09/19 02:20:09;;;;;;;13.15;10.38;;;;;;;14.29;83.31;99363.50;1744434;82;21141;-69
2021/09/19 02:22:36;;;;;;;16.90;10.82;;;;;;;14.26;83.31;99356.69;1744513;82;21094;-69
2021/09/19 02:25:03;;;;;;;13.98;9.75;;;;;;;14.28;83.36;99356.50;1748798;80;22745;-69
2021/09/19 02:27:29;;;;;;;11.35;8.45;;;;;;;14.32;83.41;99363.98;1744655;80;21039;-69
2021/09/19 02:29:57;;;;;;;13.55;7.62;;;;;;;14.35;83.39;99366.79;1771904;79;21621;-69
2021/09/19 02:32:24;;;;;;;11.20;7.28;;;;;;;14.31;83.24;99369.47;1773336;80;21073;-69
2021/09/19 02:34:52;;;;;;;10.25;6.87;;;;;;;14.28;83.08;99369.78;1762220;80;21435;-69
2021/09/19 02:37:20;;;;;;;7.17;5.70;;;;;;;14.25;82.97;99369.64;1744597;80;20968;-68
2021/09/19 02:39:46;;;;;;;8.78;5.40;;;;;;;14.27;82.84;99376.93;1744651;82;21079;-68
2021/09/19 02:42:13;;;;;;;10.68;4.78;;;;;;;14.30;82.72;99377.11;1753191;80;20952;-68
2021/09/19 02:44:41;;;;;;;7.45;4.62;;;;;;;14.30;82.40;99374.45;1770386;80;21427;-70
2021/09/19 02:47:08;;;;;;;6.65;4.33;;;;;;;14.26;82.14;99371.79;1767240;79;21040;-69
2021/09/19 02:49:34;;;;;;;6.90;4.33;;;;;;;14.26;81.96;99370.46;1752828;80;21840;-69
2021/09/19 02:52:03;;;;;;;5.35;4.17;;;;;;;14.27;81.74;99373.45;1774967;80;21385;-69
2021/09/19 02:54:30;;;;;;;5.60;3.30;;;;;;;14.23;81.45;99366.33;1745215;80;21044;-68
2021/09/19 02:56:56;;;;;;;5.05;3.35;;;;;;;14.15;80.90;99367.67;1768014;80;21685;-69
2021/09/19 02:59:25;;;;;;;5.80;3.27;;;;;;;14.12;80.79;99369.84;1772596;80;20977;-68
2021/09/19 03:01:52;;;;;;;5.55;3.40;;;;;;;14.12;80.65;99374.66;1774692;79;21782;-69
2021/09/19 03:04:18;;;;;;;3.80;3.10;;;;;;;14.13;80.48;99368.84;1767818;80;21535;-69
2021/09/19 03:06:46;;;;;;;5.28;3.27;;;;;;;14.11;80.27;99367.69;1766105;80;21084;-69
2021/09/19 03:09:14;;;;;;;6.97;3.15;;;;;;;14.06;80.01;99377.97;1748501;80;20948;-69
2021/09/19 03:11:41;;;;;;;4.03;3.10;;;;;;;14.06;79.94;99372.66;1768510;80;21079;-69
2021/09/19 03:14:09;;;;;;;3.33;3.02;;;;;;;14.06;79.83;99368.68;1775116;80;20973;-68
2021/09/19 03:16:37;;;;;;;7.37;3.10;;;;;;;14.06;79.73;99367.35;1772555;80;21463;-69
2021/09/19 03:19:05;;;;;;;7.10;3.47;;;;;;;14.06;79.54;99370.01;1772634;80;20933;-68
2021/09/19 03:21:33;;;;;;;5.12;2.90;;;;;;;14.04;79.36;99381.30;1766452;80;21008;-69
2021/09/19 03:24:00;;;;;;;5.53;3.00;;;;;;;14.03;79.23;99382.30;1770310;80;21027;-68
2021/09/19 03:26:26;;;;;;;6.83;3.37;;;;;;;14.02;79.12;99379.32;1770628;80;22237;-68
2021/09/19 03:28:54;;;;;;;5.10;3.15;;;;;;;14.00;79.06;99378.66;1770500;80;20941;-68
2021/09/19 03:31:20;;;;;;;6.83;3.20;;;;;;;14.01;78.94;99382.48;1766130;80;20980;-68
2021/09/19 03:33:48;;;;;;;4.75;3.12;;;;;;;14.03;78.86;99386.28;1756196;80;20984;-68
2021/09/19 03:36:15;;;;;;;6.42;3.20;;;;;;;14.01;78.78;99377.16;1773011;80;20941;-68
2021/09/19 03:38:43;;;;;;;4.10;3.00;;;;;;;14.00;78.76;99372.03;1772858;80;20972;-69
2021/09/19 03:41:09;;;;;;;4.08;3.08;;;;;;;13.99;78.86;99371.20;1757454;80;20972;-69
2021/09/19 03:43:36;;;;;;;3.58;3.20;;;;;;;13.99;78.93;99367.22;1744430;82;21086;-69
2021/09/19 03:46:03;;;;;;;7.25;3.40;;;;;;;14.00;78.94;99370.20;1744381;81;20972;-69
2021/09/19 03:48:30;;;;;;;6.72;3.20;;;;;;;13.97;79.01;99369.69;1771989;80;20984;-69
2021/09/19 03:50:56;;;;;;;8.85;3.02;;;;;;;13.94;78.96;99362.07;1775003;80;22246;-70
2021/09/19 03:53:23;;;;;;;5.70;3.12;;;;;;;13.91;78.96;99366.39;1774865;80;21082;-69
2021/09/19 03:55:49;;;;;;;4.92;3.05;;;;;;;13.87;78.88;99363.73;1754185;80;21463;-69
2021/09/19 03:58:17;;;;;;;4.72;2.90;;;;;;;13.84;78.88;99366.23;1732146;80;20988;-69
2021/09/19 04:00:44;;;;;;;5.30;3.33;;;;;;;13.80;78.82;99366.24;1767899;80;20929;-69
2021/09/19 04:03:10;;;;;;;6.03;3.10;;;;;;;13.73;78.79;99364.74;1744759;80;22190;-68
2021/09/19 04:05:38;;;;;;;4.92;3.12;;;;;;;13.69;78.84;99369.20;1744385;82;21040;-68
2021/09/19 04:08:04;;;;;;;5.22;3.10;;;;;;;13.63;78.85;99369.89;1742375;80;20989;-68
2021/09/19 04:10:31;;;;;;;7.72;3.12;;;;;;;13.57;78.94;99375.34;1749313;80;21479;-69
2021/09/19 04:12:57;;;;;;;5.97;3.10;;;;;;;13.54;79.10;99373.53;1750620;80;21007;-69
2021/09/19 04:15:25;;;;;;;8.05;3.30;;;;;;;13.55;79.24;99371.20;1773038;80;21807;-69
2021/09/19 04:17:53;;;;;;;5.75;3.00;;;;;;;13.57;79.40;99373.19;1750357;80;20933;-69
2021/09/19 04:20:21;;;;;;;6.35;3.10;;;;;;;13.61;79.49;99376.70;1752921;80;21040;-70
2021/09/19 04:22:49;;;;;;;4.30;3.30;;;;;;;13.64;79.58;99371.05;1772758;80;20988;-70
2021/09/19 04:25:17;;;;;;;5.25;3.05;;;;;;;13.69;79.66;99370.53;1774569;80;21087;-70
2021/09/19 04:27:45;;;;;;;6.58;3.22;;;;;;;13.70;79.64;99363.76;1765545;80;20949;-70
2021/09/19 04:30:12;;;;;;;3.20;2.90;;;;;;;13.71;79.61;99362.77;1744439;80;20936;-70
2021/09/19 04:32:39;;;;;;;5.15;3.20;;;;;;;13.74;79.58;99365.57;1770425;80;20984;-71
2021/09/19 04:35:06;;;;;;;8.68;3.12;;;;;;;13.77;79.52;99371.86;1773941;79;21091;-70
2021/09/19 04:37:34;;;;;;;5.00;3.00;;;;;;;13.78;79.43;99372.69;1757582;80;21341;-71
2021/09/19 04:40:01;;;;;;;5.00;3.10;;;;;;;13.78;79.40;99372.69;1744217;80;21766;-71
2021/09/19 04:42:28;;;;;;;5.87;3.22;;;;;;;13.79;79.37;99383.63;1767069;80;20980;-71
2021/09/19 04:44:55;;;;;;;6.30;3.30;;;;;;;13.79;79.33;99376.50;1772967;80;21019;-71
2021/09/19 04:47:21;;;;;;;6.25;3.17;;;;;;;13.81;79.36;99379.02;1773817;80;21547;-72
2021/09/19 04:49:48;;;;;;;6.50;3.40;;;;;;;13.84;79.40;99381.33;1772247;80;20995;-70
2021/09/19 04:52:15;;;;;;;5.42;3.10;;;;;;;13.85;79.43;99381.66;1751587;80;21944;-72
2021/09/19 04:54:42;;;;;;;5.40;3.40;;;;;;;13.86;79.39;99382.81;1766779;80;21039;-71
2021/09/19 04:57:08;;;;;;;5.95;3.20;;;;;;;13.86;79.49;99378.83;1748881;80;21004;-72
2021/09/19 04:59:35;;;;;;;5.40;3.60;;;;;;;13.89;79.47;99384.29;1759300;80;22615;-70
2021/09/19 05:02:03;;;;;;;6.28;4.10;;;;;;;13.90;79.52;99382.00;1777102;80;21040;-72
2021/09/19 05:04:32;;;;;;;7.15;3.95;;;;;;;13.93;79.50;99380.33;1749193;80;22518;-71
2021/09/19 05:07:00;;;;;;;5.92;4.30;;;;;;;13.96;79.56;99377.33;1757459;80;21067;-71
2021/09/19 05:09:28;;;;;;;7.70;4.53;;;;;;;13.99;79.58;99384.95;1752910;80;21026;-71
2021/09/19 05:11:56;;;;;;;8.40;4.10;;;;;;;14.04;79.62;99387.44;1759657;80;22039;-70
2021/09/19 05:14:24;;;;;;;5.15;4.33;;;;;;;14.09;79.71;99386.09;1746667;80;20987;-72
2021/09/19 05:16:52;;;;;;;9.08;4.25;;;;;;;14.14;79.78;99384.60;1752178;80;21011;-71
2021/09/19 05:19:20;;;;;;;6.42;4.00;;;;;;;14.17;79.71;99380.27;1762261;80;21396;-71
2021/09/19 05:21:48;;;;;;;6.47;4.42;;;;;;;14.24;79.74;99390.55;1770051;80;20996;-70
2021/09/19 05:24:14;;;;;;;5.30;4.03;;;;;;;14.36;79.88;99384.88;1749232;80;21012;-70
2021/09/19 05:26:42;;;;;;;5.42;3.75;;;;;;;14.47;79.80;99387.20;1746881;80;20993;-71
2021/09/19 05:29:10;;;;;;;6.90;4.08;;;;;;;14.58;79.74;99390.84;1746397;80;21841;-71
2021/09/19 05:31:36;;;;;;;4.97;4.10;;;;;;;14.70;79.54;99392.13;1747032;80;20963;-72
2021/09/19 05:34:04;;;;;;;4.95;3.98;;;;;;;14.80;79.40;99388.76;1752269;80;20992;-71
2021/09/19 05:36:30;;;;;;;5.03;3.62;;;;;;;14.93;79.33;99388.69;1746425;80;21120;-70
2021/09/19 05:38:58;;;;;;;4.12;3.50;;;;;;;15.03;78.90;99385.31;1770609;80;21486;-70
2021/09/19 05:41:25;;;;;;;9.50;3.83;;;;;;;15.06;78.38;99391.64;1759856;80;22846;-71
2021/09/19 05:43:53;;;;;;;5.35;3.85;;;;;;;15.12;78.13;99385.59;1752778;80;21012;-70
2021/09/19 05:46:20;;;;;;;5.12;3.50;;;;;;;15.17;77.88;99377.44;1746413;82;20998;-71
2021/09/19 05:48:46;;;;;;;4.70;3.83;;;;;;;15.25;77.55;99375.23;1759225;80;21328;-73
2021/09/19 05:51:13;;;;;;;5.72;4.25;;;;;;;15.32;77.23;99372.67;1775040;80;21000;-70
2021/09/19 05:53:39;;;;;;;8.13;4.40;;;;;;;15.35;76.79;99374.50;1772936;80;22217;-70
2021/09/19 05:56:06;;;;;;;5.85;4.42;;;;;;;15.37;76.33;99374.31;1754619;80;21024;-71
2021/09/19 05:58:32;;;;;;;6.12;4.53;;;;;;;15.37;75.93;99380.46;1747634;80;21067;-71
2021/09/19 06:01:00;;;;;;;6.55;4.05;;;;;;;15.38;75.74;99382.11;1775904;80;21569;-71
2021/09/19 06:03:27;;;;;;;7.42;4.78;;;;;;;15.39;75.52;99384.27;1776064;80;21063;-71
2021/09/19 06:05:53;;;;;;;5.92;4.42;;;;;;;15.39;75.50;99381.11;1769145;80;22826;-70
2021/09/19 06:08:22;;;;;;;6.65;4.40;;;;;;;15.44;75.53;99387.22;1745447;82;20968;-68
2021/09/19 06:10:48;;;;;;;5.75;3.85;;;;;;;15.46;75.46;99392.70;1766993;79;21036;-69
2021/09/19 06:13:16;;;;;;;6.37;3.30;;;;;;;15.54;75.50;99388.31;1757095;80;21422;-70
2021/09/19 06:15:43;;;;;;;4.95;3.20;;;;;;;15.61;75.50;99395.45;1777168;80;21075;-71
2021/09/19 06:18:11;;;;;;;5.70;3.20;;;;;;;15.66;75.07;99386.94;1759471;80;21047;-70
2021/09/19 06:20:38;;;;;;;4.97;3.30;;;;;;;15.63;74.61;99395.27;1773864;80;21105;-70
2021/09/19 06:23:06;;;;;;;3.77;3.00;;;;;;;15.60;74.41;99396.92;1777074;80;21024;-70
2021/09/19 06:25:32;;;;;;;7.65;3.42;;;;;;;15.60;74.27;99391.61;1754395;80;21037;-72
2021/09/19 06:27:59;;;;;;;4.33;3.37;;;;;;;15.57;73.48;99385.31;1756745;80;21087;-70
2021/09/19 06:30:26;;;;;;;5.50;3.20;;;;;;;15.56;72.96;99383.16;1751728;80;22831;-71
2021/09/19 06:32:54;;;;;;;4.70;2.90;;;;;;;15.57;72.19;99394.62;1764048;80;21035;-71
2021/09/19 06:35:22;;;;;;;9.35;3.30;;;;;;;15.59;72.20;99395.27;1758915;80;21051;-71
2021/09/19 06:37:49;;;;;;;4.55;3.60;;;;;;;15.67;71.96;99397.91;1761770;80;21031;-69
2021/09/19 06:40:16;;;;;;;5.70;4.15;;;;;;;15.74;71.98;99399.69;1752230;80;21044;-70
2021/09/19 06:42:44;;;;;;;5.50;4.17;;;;;;;15.84;71.85;99402.61;1747938;80;21483;-70
2021/09/19 06:45:11;;;;;;;7.85;4.20;;;;;;;15.90;71.53;99396.55;1760185;80;21031;-70
2021/09/19 06:47:41;;;;;;;5.75;4.30;;;;;;;15.96;71.59;99395.84;1760021;80;21051;-71
2021/09/19 06:50:10;;;;;;;5.22;4.40;;;;;;;16.05;71.71;99392.60;1773497;80;21031;-72
2021/09/19 06:52:37;;;;;;;6.40;5.03;;;;;;;16.16;71.71;99398.31;1762821;80;21414;-69
2021/09/19 06:55:05;;;;;;;5.60;5.00;;;;;;;16.26;71.33;99395.38;1749640;80;22241;-70
2021/09/19 06:57:31;;;;;;;6.25;4.60;;;;;;;16.33;71.09;99392.31;1747215;80;21039;-69
2021/09/19 06:59:58;;;;;;;5.92;4.83;;;;;;;16.41;70.57;99391.41;1763363;80;21036;-69
2021/09/19 07:02:26;;;;;;;5.25;4.72;;;;;;;16.47;70.02;99391.48;1753847;80;21091;-70
2021/09/19 07:04:53;;;;;;;7.72;5.10;;;;;;;16.51;69.58;99391.97;1746045;80;21023;-71
2021/09/19 07:07:19;;;;;;;6.22;5.25;;;;;;;16.63;69.67;99386.99;1756945;80;22224;-70
2021/09/19 07:09:46;;;;;;;8.80;5.40;;;;;;;16.78;69.69;99391.82;1753744;80;20992;-69
2021/09/19 07:12:13;;;;;;;9.78;6.05;;;;;;;16.88;68.44;99393.19;1771947;80;21028;-70
2021/09/19 07:14:39;;;;;;;6.60;6.00;;;;;;;16.93;67.92;99391.81;1774022;80;21012;-70
2021/09/19 07:17:07;;;;;;;7.33;5.87;;;;;;;17.02;67.66;99392.86;1752032;80;21031;-70
2021/09/19 07:19:35;;;;;;;6.15;4.72;;;;;;;17.10;67.40;99386.08;1756179;80;21827;-71
2021/09/19 07:22:03;;;;;;;7.62;4.83;;;;;;;17.16;66.98;99387.16;1760998;80;21028;-69
2021/09/19 07:24:30;;;;;;;6.87;4.70;;;;;;;17.16;66.34;99385.82;1744453;82;21016;-70
2021/09/19 07:26:56;;;;;;;5.95;4.70;;;;;;;17.14;66.26;99388.67;1759680;80;21063;-68
2021/09/19 07:29:23;;;;;;;6.50;4.05;;;;;;;17.14;66.12;99390.02;1757944;80;21403;-68
2021/09/19 07:31:53;;;;;;;7.67;4.85;;;;;;;17.20;65.90;99391.63;1746812;80;21832;-69
2021/09/19 07:34:19;;;;;;;8.30;5.00;;;;;;;17.19;65.62;99393.47;1774976;80;20988;-69
2021/09/19 07:36:46;;;;;;;5.25;4.75;;;;;;;17.23;65.75;99395.24;1774099;80;21046;-69
2021/09/19 07:39:13;;;;;;;4.25;3.80;;;;;;;17.30;65.89;99400.16;1767135;80;20937;-68
2021/09/19 07:41:40;;;;;;;6.15;3.92;;;;;;;17.38;65.15;99404.05;1745812;80;20980;-69
2021/09/19 07:44:08;;;;;;;4.85;4.20;;;;;;;17.42;65.13;99394.12;1746063;80;21800;-69
2021/09/19 07:46:37;;;;;;;4.97;3.50;;;;;;;17.53;64.95;99391.95;1744587;82;20948;-69
2021/09/19 07:49:06;;;;;;;5.62;4.08;;;;;;;17.60;64.88;99403.54;1744559;80;20945;-69
2021/09/19 07:51:32;;;;;;;6.60;4.40;;;;;;;17.60;64.51;99404.36;1754540;80;21243;-68
2021/09/19 07:54:01;;;;;;;5.55;4.22;;;;;;;17.57;64.25;99406.60;1766826;80;21008;-68
2021/09/19 07:56:28;;;;;;;6.12;4.33;;;;;;;17.56;64.78;99400.91;1747161;80;21856;-68
2021/09/19 07:58:54;;;;;;;4.22;3.80;;;;;;;17.58;65.01;99409.59;1757553;80;20938;-68
2021/09/19 08:01:21;;;;;;;4.70;3.92;;;;;;;17.58;64.94;99404.24;1734111;80;21095;-70
2021/09/19 08:03:47;;;;;;;5.40;4.00;;;;;;;17.56;64.58;99399.06;1755431;80;21096;-68
2021/09/19 08:06:15;;;;;;;4.92;3.90;;;;;;;17.62;65.08;99400.98;1735190;80;21396;-70
2021/09/19 08:08:42;;;;;;;3.12;2.75;;;;;;;17.77;64.86;99400.14;1758564;80;21844;-70
2021/09/19 08:11:09;;;;;;;4.37;3.25;;;;;;;17.97;64.74;99391.27;1756838;80;21534;-70
2021/09/19 08:13:35;;;;;;;3.25;2.80;;;;;;;18.07;63.60;99396.80;1753266;80;21387;-70
2021/09/19 08:16:02;;;;;;;4.03;3.37;;;;;;;18.04;63.56;99393.98;1748655;80;21388;-70
2021/09/19 08:18:29;;;;;;;4.37;3.10;;;;;;;18.02;63.20;99394.17;1764265;80;21007;-69
2021/09/19 08:20:56;;;;;;;5.03;2.95;;;;;;;18.01;63.26;99390.36;1775050;80;21795;-69
2021/09/19 08:23:22;;;;;;;4.75;3.08;;;;;;;18.09;63.44;99378.71;1757285;80;20984;-70
2021/09/19 08:25:49;;;;;;;3.42;2.40;;;;;;;18.25;63.34;99386.45;1760840;80;21059;-72
2021/09/19 08:28:17;;;;;;;4.53;2.50;;;;;;;18.40;62.20;99384.98;1757812;80;21078;-70
2021/09/19 08:30:45;;;;;;;5.30;2.60;;;;;;;18.40;60.67;99373.78;1760126;80;20930;-69
2021/09/19 08:33:11;;;;;;;6.00;2.20;;;;;;;18.39;61.14;99373.98;1738378;80;21909;-71
2021/09/19 08:35:38;;;;;;;4.50;1.95;;;;;;;18.42;60.60;99371.72;1748215;80;21000;-71
2021/09/19 08:38:06;;;;;;;3.90;2.33;;;;;;;18.55;60.93;99377.68;1748912;80;21510;-71
2021/09/19 08:40:33;;;;;;;3.20;2.40;;;;;;;18.72;60.63;99372.35;1747894;80;21023;-69
2021/09/19 08:43:01;;;;;;;4.75;2.30;;;;;;;18.79;60.52;99368.35;1749576;80;21051;-74
2021/09/19 08:45:27;;;;;;;4.50;2.35;;;;;;;18.90;60.91;99362.94;1759627;80;22634;-71
2021/09/19 08:47:54;;;;;;;4.85;2.47;;;;;;;19.05;59.97;99358.27;1769347;80;20933;-71
2021/09/19 08:50:21;;;;;;;2.60;2.20;;;;;;;19.13;59.31;99363.45;1760362;80;20997;-71
2021/09/19 08:52:49;;;;;;;3.62;2.20;;;;;;;19.12;58.62;99357.78;1744562;80;21032;-71
2021/09/19 08:55:15;;;;;;;2.80;1.87;;;;;;;19.11;58.72;99365.50;1744746;80;20925;-71
2021/09/19 08:57:42;;;;;;;4.05;2.00;;;;;;;19.14;57.70;99363.75;1750046;80;23172;-70
2021/09/19 09:00:11;;;;;;;4.83;2.35;;;;;;;19.12;58.19;99361.28;1755485;80;20908;-72
2021/09/19 09:02:57;;;;;;;3.60;2.40;;;;;;;19.23;58.41;99361.72;1752390;80;21051;-70
2021/09/19 09:05:27;;;;;;;3.47;1.67;;;;;;;19.29;57.60;99357.70;1763784;80;28530;-71
2021/09/19 09:07:59;;;;;;;2.87;2.25;;;;;;;19.29;57.06;99356.36;1750814;80;21046;-71
2021/09/19 09:10:44;;;;;;;2.33;2.12;;;;;;;19.29;57.24;99366.25;1745061;80;21776;-71
2021/09/19 09:13:15;;;;;;;3.85;2.20;;;;;;;19.31;57.25;99365.04;1753846;80;20975;-70
2021/09/19 09:15:51;;;;;;;2.47;2.27;;;;;;;19.44;57.65;99365.56;1749461;80;20992;-71
2021/09/19 09:18:35;;;;;;;3.58;2.30;;;;;;;19.53;56.74;99360.33;1761866;80;21101;-71
2021/09/19 09:21:06;;;;;;;6.75;2.30;;;;;;;19.60;57.80;99354.50;1731748;80;21044;-70
2021/09/19 09:23:42;;;;;;;3.25;1.90;;;;;;;19.69;57.15;99364.51;1754228;79;21640;-70
2021/09/19 09:26:19;;;;;;;2.95;2.15;;;;;;;19.75;56.44;99363.66;1771480;80;21148;-71
2021/09/19 09:29:00;;;;;;;2.70;2.22;;;;;;;19.84;55.71;99357.08;1775760;80;21027;-71
2021/09/19 09:31:43;;;;;;;3.17;2.40;;;;;;;19.86;55.95;99359.54;1757922;80;21513;-71
2021/09/19 09:34:21;;;;;;;31.77;4.40;;;;;;;19.92;56.61;99348.83;1757317;80;21004;-72
2021/09/19 09:36:52;;;;;;;7.25;2.58;;;;;;;19.99;56.20;99344.81;1765229;80;20985;-71
2021/09/19 09:39:36;;;;;;;2.55;2.27;;;;;;;20.11;55.39;99350.36;1758733;80;21059;-70
2021/09/19 09:42:07;;;;;;;2.58;2.20;;;;;;;20.24;54.95;99354.35;1734568;80;21071;-76
2021/09/19 09:44:45;;;;;;;2.45;2.20;;;;;;;20.42;54.53;99345.13;1773788;80;21199;-70
2021/09/19 09:47:20;;;;;;;3.50;2.45;;;;;;;20.68;54.03;99344.27;1746784;80;21130;-72
2021/09/19 09:50:00;;;;;;;4.20;2.47;;;;;;;20.78;53.98;99350.01;1745531;80;21839;-71
2021/09/19 09:52:32;;;;;;;3.20;2.20;;;;;;;20.94;53.93;99349.20;1748765;80;21506;-72
2021/09/19 09:55:08;;;;;;;4.37;2.08;;;;;;;21.12;52.78;99347.97;1746279;80;21000;-73
2021/09/19 09:57:43;;;;;;;2.77;2.17;;;;;;;21.23;51.87;99350.00;1743655;82;20980;-72
2021/09/19 10:00:18;;;;;;;2.00;1.80;;;;;;;21.25;52.34;99343.06;1743475;82;21004;-72
2021/09/19 10:02:47;;;;;;;8.18;2.40;;;;;;;21.35;53.09;99344.78;1745936;81;21816;-72
2021/09/19 10:05:15;;;;;;;2.35;2.10;;;;;;;21.58;52.21;99340.17;1770945;80;20953;-71
2021/09/19 10:07:44;;;;;;;2.10;1.90;;;;;;;21.71;51.35;99336.88;1777757;80;21008;-71
2021/09/19 10:10:14;;;;;;;1.90;1.70;;;;;;;21.79;51.22;99329.56;1777526;80;21471;-72
2021/09/19 10:12:41;;;;;;;2.22;1.75;;;;;;;21.76;50.03;99339.42;1767834;80;20942;-71
2021/09/19 10:15:10;;;;;;;2.35;1.87;;;;;;;21.69;49.52;99338.12;1769248;80;21479;-71
2021/09/19 10:17:38;;;;;;;2.30;2.10;;;;;;;21.56;50.14;99348.45;1747516;82;21000;-71
2021/09/19 10:20:15;;;;;;;1.77;1.50;;;;;;;21.52;50.48;99341.03;1747644;80;21375;-71
2021/09/19 10:22:55;;;;;;;1.57;1.40;;;;;;;21.61;49.82;99347.27;1746876;80;20980;-72
2021/09/19 10:25:54;;;;;;;3.65;1.80;;;;;;;21.68;47.97;99331.92;1749040;80;21094;-71
2021/09/19 10:28:39;;;;;;;4.00;1.67;;;;;;;21.63;48.43;99322.89;1752351;80;21490;-71
2021/09/19 10:31:15;;;;;;;2.33;1.40;;;;;;;21.71;48.74;99320.75;1778170;80;21416;-71
2021/09/19 10:33:52;;;;;;;2.17;1.42;;;;;;;21.79;46.67;99329.56;1778413;80;20909;-71
2021/09/19 10:36:50;;;;;;;2.10;1.35;;;;;;;21.70;47.95;99333.86;1776380;80;20981;-72
2021/09/19 10:39:33;;;;;;;2.20;1.57;;;;;;;21.52;47.22;99331.14;1737695;82;20983;-72
2021/09/19 10:42:31;;;;;;;1.85;1.50;;;;;;;21.33;47.42;99344.19;1753119;80;22701;-72
2021/09/19 10:45:07;;;;;;;3.65;1.45;;;;;;;21.10;47.23;99332.08;1747988;80;21027;-72
2021/09/19 10:47:43;;;;;;;1.90;1.67;;;;;;;20.89;48.13;99325.70;1750670;80;21019;-72
2021/09/19 10:50:31;;;;;;;2.83;1.60;;;;;;;20.71;48.53;99333.09;1777632;80;20953;-72
2021/09/19 10:53:04;;;;;;;1.90;1.65;;;;;;;20.54;48.68;99318.50;1774548;80;20976;-72
2021/09/19 10:55:36;;;;;;;2.62;1.70;;;;;;;20.43;49.38;99316.48;1778597;80;21471;-72
2021/09/19 10:58:06;;;;;;;;;;;;;;;20.42;49.89;99322.86;1781299;80;20976;-72
2021/09/19 11:00:34;;;;;;;2.83;1.60;;;;;;;20.39;49.80;99321.42;1778438;80;20142;-72
2021/09/19 11:03:08;;;;;;;3.05;1.50;;;;;;;20.41;50.34;99323.37;1770189;80;21433;-71
2021/09/19 11:05:49;;;;;;;1.80;1.50;;;;;;;20.63;49.55;99329.83;1778711;80;22358;-72
2021/09/19 11:08:25;;;;;;;2.30;1.40;;;;;;;20.92;48.75;99329.80;1741752;82;21859;-71
2021/09/19 11:11:03;;;;;;;1.57;1.37;;;;;;;21.25;47.95;99330.45;1720029;82;40355;-72
2021/09/19 11:13:45;;;;;;;1.80;1.62;;;;;;;21.33;47.17;99320.83;1747646;82;20976;-72
2021/09/19 11:16:21;;;;;;;;;;;;;;;21.52;47.57;99317.70;1750306;82;21411;-71
2021/09/19 11:18:52;;;;;;;1.70;1.60;;;;;;;21.82;46.84;99304.95;1751787;80;20145;-71
2021/09/19 11:21:24;;;;;;;2.12;1.47;;;;;;;22.01;46.00;99305.28;1762357;80;21814;-71
2021/09/19 11:24:02;;;;;;;2.45;1.77;;;;;;;22.20;45.31;99302.13;1747563;82;20972;-71
2021/09/19 11:26:36;;;;;;;1.50;1.40;;;;;;;22.30;45.53;99303.77;1747934;82;20980;-72
2021/09/19 11:29:19;;;;;;;1.90;1.57;;;;;;;22.47;44.09;99300.76;1777967;80;20953;-73
2021/09/19 11:31:46;;;;;;;1.52;1.30;;;;;;;22.53;43.78;99295.83;1778739;80;21025;-71
2021/09/19 11:34:18;;;;;;;1.50;1.40;;;;;;;22.48;44.05;99293.50;1778406;80;20925;-71
2021/09/19 11:36:47;;;;;;;2.00;1.42;;;;;;;22.42;43.70;99299.80;1777189;80;20941;-72
2021/09/19 11:39:15;;;;;;;2.65;1.50;;;;;;;22.28;44.23;99300.46;1771778;80;20964;-72